sensor_id;sensor_type;location;lat;lon;timestamp;P1;durP1;ratioP1;P2;durP2;ratioP2
72575;SDS011;60613;48.658;2.328;2023-11-21T07:02:33;4.35;;;0.90;;
72575;SDS011;60613;48.658;2.328;2023-11-21T07:04:59;4.87;;;0.77;;
72575;SDS011;60613;48.658;2.328;2023-11-21T07:07:25;2.10;;;0.68;;
72575;SDS011;60613;48.658;2.328;2023-11-21T07:09:52;2.60;;;0.83;;
72575;SDS011;60613;48.658;2.328;2023-11-21T07:12:17;3.75;;;0.90;;
72575;SDS011;60613;48.658;2.328;2023-11-21T07:14:43;3.67;;;0.70;;
72575;SDS011;60613;48.658;2.328;2023-11-21T07:17:10;3.35;;;0.93;;
72575;SDS011;60613;48.658;2.328;2023-11-21T07:19:37;3.75;;;0.90;;
72575;SDS011;60613;48.658;2.328;2023-11-21T07:22:03;2.63;;;0.80;;
72575;SDS011;60613;48.658;2.328;2023-11-21T07:24:30;2.90;;;0.90;;
72575;SDS011;60613;48.658;2.328;2023-11-21T07:26:56;4.88;;;1.10;;
72575;SDS011;60613;48.658;2.328;2023-11-21T07:29:25;3.03;;;1.00;;
72575;SDS011;60613;48.658;2.328;2023-11-21T07:31:52;3.20;;;0.95;;
72575;SDS011;60613;48.658;2.328;2023-11-21T07:34:18;2.87;;;0.90;;
72575;SDS011;60613;48.658;2.328;2023-11-21T07:36:44;2.53;;;0.90;;
72575;SDS011;60613;48.658;2.328;2023-11-21T07:39:10;1.95;;;0.80;;
72575;SDS011;60613;48.658;2.328;2023-11-21T07:41:36;3.20;;;1.00;;
72575;SDS011;60613;48.658;2.328;2023-11-21T07:44:03;1.98;;;0.82;;
72575;SDS011;60613;48.658;2.328;2023-11-21T07:46:28;3.80;;;0.90;;
72575;SDS011;60613;48.658;2.328;2023-11-21T07:48:54;3.50;;;0.90;;
72575;SDS011;60613;48.658;2.328;2023-11-21T07:51:20;2.90;;;1.10;;
72575;SDS011;60613;48.658;2.328;2023-11-21T07:53:45;3.42;;;1.00;;
72575;SDS011;60613;48.658;2.328;2023-11-21T07:56:11;3.03;;;1.20;;
72575;SDS011;60613;48.658;2.328;2023-11-21T07:58:37;3.47;;;0.90;;
72575;SDS011;60613;48.658;2.328;2023-11-21T08:01:04;3.75;;;1.15;;
72575;SDS011;60613;48.658;2.328;2023-11-21T08:03:30;3.08;;;1.00;;
72575;SDS011;60613;48.658;2.328;2023-11-21T08:05:56;3.70;;;1.02;;
72575;SDS011;60613;48.658;2.328;2023-11-21T08:08:22;3.27;;;0.90;;
72575;SDS011;60613;48.658;2.328;2023-11-21T08:10:48;7.25;;;1.80;;
72575;SDS011;60613;48.658;2.328;2023-11-21T08:13:21;5.32;;;2.20;;
72575;SDS011;60613;48.658;2.328;2023-11-21T08:15:49;5.47;;;2.30;;
72575;SDS011;60613;48.658;2.328;2023-11-21T08:18:15;5.23;;;2.33;;
72575;SDS011;60613;48.658;2.328;2023-11-21T08:20:42;6.40;;;2.38;;
72575;SDS011;60613;48.658;2.328;2023-11-21T08:23:08;6.20;;;2.55;;
72575;SDS011;60613;48.658;2.328;2023-11-21T08:25:33;7.27;;;2.70;;
72575;SDS011;60613;48.658;2.328;2023-11-21T08:27:59;5.97;;;2.30;;
72575;SDS011;60613;48.658;2.328;2023-11-21T08:30:26;6.10;;;2.60;;
72575;SDS011;60613;48.658;2.328;2023-11-21T08:32:54;6.07;;;2.45;;
72575;SDS011;60613;48.658;2.328;2023-11-21T08:35:23;6.93;;;2.90;;
72575;SDS011;60613;48.658;2.328;2023-11-21T08:37:50;7.67;;;2.90;;
72575;SDS011;60613;48.658;2.328;2023-11-21T08:40:17;7.13;;;2.83;;
72575;SDS011;60613;48.658;2.328;2023-11-21T08:42:44;5.85;;;2.58;;
72575;SDS011;60613;48.658;2.328;2023-11-21T08:45:10;6.10;;;2.00;;
72575;SDS011;60613;48.658;2.328;2023-11-21T08:47:37;6.13;;;2.50;;
72575;SDS011;60613;48.658;2.328;2023-11-21T08:50:04;7.47;;;2.60;;
72575;SDS011;60613;48.658;2.328;2023-11-21T08:52:32;8.07;;;2.47;;
72575;SDS011;60613;48.658;2.328;2023-11-21T08:54:58;5.63;;;1.90;;
72575;SDS011;60613;48.658;2.328;2023-11-21T08:57:27;6.90;;;2.13;;
72575;SDS011;60613;48.658;2.328;2023-11-21T08:59:53;6.30;;;1.97;;
72575;SDS011;60613;48.658;2.328;2023-11-21T09:02:23;6.00;;;1.83;;
72575;SDS011;60613;48.658;2.328;2023-11-21T09:04:51;5.40;;;1.85;;
72575;SDS011;60613;48.658;2.328;2023-11-21T09:07:17;5.65;;;1.90;;
72575;SDS011;60613;48.658;2.328;2023-11-21T09:09:45;6.00;;;1.80;;
72575;SDS011;60613;48.658;2.328;2023-11-21T09:12:14;6.20;;;2.00;;
72575;SDS011;60613;48.658;2.328;2023-11-21T09:14:40;9.13;;;1.95;;
72575;SDS011;60613;48.658;2.328;2023-11-21T09:17:07;5.57;;;1.85;;
72575;SDS011;60613;48.658;2.328;2023-11-21T09:19:38;6.22;;;1.92;;
72575;SDS011;60613;48.658;2.328;2023-11-21T09:22:05;5.70;;;2.00;;
72575;SDS011;60613;48.658;2.328;2023-11-21T09:24:31;5.27;;;1.80;;
72575;SDS011;60613;48.658;2.328;2023-11-21T09:26:57;6.20;;;1.95;;
72575;SDS011;60613;48.658;2.328;2023-11-21T09:29:23;6.57;;;1.97;;
72575;SDS011;60613;48.658;2.328;2023-11-21T09:31:48;5.90;;;2.25;;
72575;SDS011;60613;48.658;2.328;2023-11-21T09:34:16;8.15;;;2.20;;
72575;SDS011;60613;48.658;2.328;2023-11-21T09:36:44;7.20;;;1.90;;
72575;SDS011;60613;48.658;2.328;2023-11-21T09:39:10;6.03;;;1.80;;
72575;SDS011;60613;48.658;2.328;2023-11-21T09:41:43;6.22;;;1.90;;
72575;SDS011;60613;48.658;2.328;2023-11-21T09:44:21;6.97;;;1.90;;
72575;SDS011;60613;48.658;2.328;2023-11-21T09:46:54;6.37;;;1.80;;
72575;SDS011;60613;48.658;2.328;2023-11-21T09:49:24;6.03;;;1.83;;
72575;SDS011;60613;48.658;2.328;2023-11-21T09:51:53;8.10;;;2.20;;
72575;SDS011;60613;48.658;2.328;2023-11-21T09:54:21;6.95;;;1.92;;
72575;SDS011;60613;48.658;2.328;2023-11-21T09:56:47;7.43;;;2.20;;
72575;SDS011;60613;48.658;2.328;2023-11-21T09:59:15;7.13;;;2.00;;
72575;SDS011;60613;48.658;2.328;2023-11-21T10:01:41;6.45;;;1.83;;
72575;SDS011;60613;48.658;2.328;2023-11-21T10:04:10;7.00;;;2.05;;
72575;SDS011;60613;48.658;2.328;2023-11-21T10:06:39;6.25;;;1.98;;
72575;SDS011;60613;48.658;2.328;2023-11-21T10:09:06;8.27;;;2.00;;
72575;SDS011;60613;48.658;2.328;2023-11-21T10:11:40;6.40;;;2.10;;
72575;SDS011;60613;48.658;2.328;2023-11-21T10:14:12;6.38;;;2.15;;
72575;SDS011;60613;48.658;2.328;2023-11-21T10:16:40;7.20;;;2.10;;
72575;SDS011;60613;48.658;2.328;2023-11-21T10:19:08;7.75;;;2.03;;
72575;SDS011;60613;48.658;2.328;2023-11-21T10:21:35;6.75;;;1.92;;
72575;SDS011;60613;48.658;2.328;2023-11-21T10:24:03;7.20;;;2.07;;
72575;SDS011;60613;48.658;2.328;2023-11-21T10:26:29;6.25;;;2.08;;
72575;SDS011;60613;48.658;2.328;2023-11-21T10:28:57;5.35;;;1.75;;
72575;SDS011;60613;48.658;2.328;2023-11-21T10:31:24;5.85;;;1.80;;
72575;SDS011;60613;48.658;2.328;2023-11-21T10:33:53;6.93;;;1.90;;
72575;SDS011;60613;48.658;2.328;2023-11-21T10:36:25;6.70;;;2.00;;
72575;SDS011;60613;48.658;2.328;2023-11-21T10:38:52;5.70;;;2.00;;
72575;SDS011;60613;48.658;2.328;2023-11-21T10:41:18;6.17;;;1.80;;
72575;SDS011;60613;48.658;2.328;2023-11-21T10:43:44;5.90;;;1.80;;
72575;SDS011;60613;48.658;2.328;2023-11-21T10:46:10;5.80;;;1.70;;
72575;SDS011;60613;48.658;2.328;2023-11-21T10:48:36;5.73;;;1.70;;
72575;SDS011;60613;48.658;2.328;2023-11-21T10:51:06;5.00;;;1.60;;
72575;SDS011;60613;48.658;2.328;2023-11-21T10:53:32;8.02;;;1.80;;
72575;SDS011;60613;48.658;2.328;2023-11-21T10:56:05;7.50;;;2.00;;
72575;SDS011;60613;48.658;2.328;2023-11-21T10:58:33;7.20;;;2.08;;
72575;SDS011;60613;48.658;2.328;2023-11-21T11:01:01;6.10;;;1.77;;
72575;SDS011;60613;48.658;2.328;2023-11-21T11:03:31;5.50;;;1.75;;
72575;SDS011;60613;48.658;2.328;2023-11-21T11:05:58;5.83;;;1.67;;
72575;SDS011;60613;48.658;2.328;2023-11-21T11:08:24;5.32;;;1.70;;
72575;SDS011;60613;48.658;2.328;2023-11-21T11:10:52;6.30;;;1.63;;
72575;SDS011;60613;48.658;2.328;2023-11-21T11:13:18;6.80;;;1.75;;
72575;SDS011;60613;48.658;2.328;2023-11-21T11:15:47;7.23;;;1.90;;
72575;SDS011;60613;48.658;2.328;2023-11-21T11:18:13;7.43;;;1.80;;
72575;SDS011;60613;48.658;2.328;2023-11-21T11:20:40;5.97;;;1.85;;
72575;SDS011;60613;48.658;2.328;2023-11-21T11:23:55;6.43;;;1.48;;
72575;SDS011;60613;48.658;2.328;2023-11-21T11:34:30;7.07;;;1.90;;
72575;SDS011;60613;48.658;2.328;2023-11-21T11:37:00;8.80;;;2.05;;
72575;SDS011;60613;48.658;2.328;2023-11-21T11:39:35;6.22;;;1.90;;
72575;SDS011;60613;48.658;2.328;2023-11-21T11:42:08;8.83;;;1.67;;
72575;SDS011;60613;48.658;2.328;2023-11-21T11:49:58;8.70;;;2.13;;
72575;SDS011;60613;48.658;2.328;2023-11-21T11:55:02;7.83;;;2.00;;
72575;SDS011;60613;48.658;2.328;2023-11-21T11:57:32;9.55;;;2.03;;
72575;SDS011;60613;48.658;2.328;2023-11-21T12:00:07;9.02;;;1.90;;
72575;SDS011;60613;48.658;2.328;2023-11-21T12:02:37;7.97;;;1.90;;
72575;SDS011;60613;48.658;2.328;2023-11-21T12:05:10;8.15;;;1.88;;
72575;SDS011;60613;48.658;2.328;2023-11-21T12:10:11;8.20;;;1.90;;
72575;SDS011;60613;48.658;2.328;2023-11-21T12:12:43;6.43;;;1.90;;
72575;SDS011;60613;48.658;2.328;2023-11-21T12:15:11;8.20;;;1.60;;
72575;SDS011;60613;48.658;2.328;2023-11-21T12:17:37;4.82;;;1.42;;
72575;SDS011;60613;48.658;2.328;2023-11-21T12:20:04;7.30;;;1.93;;
72575;SDS011;60613;48.658;2.328;2023-11-21T12:22:31;5.68;;;1.42;;
72575;SDS011;60613;48.658;2.328;2023-11-21T12:24:57;6.47;;;1.70;;
72575;SDS011;60613;48.658;2.328;2023-11-21T12:27:23;5.80;;;1.55;;
72575;SDS011;60613;48.658;2.328;2023-11-21T12:29:48;6.13;;;1.57;;
72575;SDS011;60613;48.658;2.328;2023-11-21T12:32:14;7.60;;;1.60;;
72575;SDS011;60613;48.658;2.328;2023-11-21T12:34:41;6.38;;;1.60;;
72575;SDS011;60613;48.658;2.328;2023-11-21T12:37:07;5.65;;;1.40;;
72575;SDS011;60613;48.658;2.328;2023-11-21T12:39:32;5.87;;;1.40;;
72575;SDS011;60613;48.658;2.328;2023-11-21T12:41:58;6.03;;;1.80;;
72575;SDS011;60613;48.658;2.328;2023-11-21T12:44:25;5.87;;;1.70;;
72575;SDS011;60613;48.658;2.328;2023-11-21T12:46:51;6.18;;;1.40;;
72575;SDS011;60613;48.658;2.328;2023-11-21T12:49:17;5.93;;;1.48;;
72575;SDS011;60613;48.658;2.328;2023-11-21T12:51:44;4.95;;;1.40;;
72575;SDS011;60613;48.658;2.328;2023-11-21T12:54:11;5.43;;;1.47;;
72575;SDS011;60613;48.658;2.328;2023-11-21T12:56:38;6.97;;;1.42;;
72575;SDS011;60613;48.658;2.328;2023-11-21T12:59:04;4.93;;;1.30;;
72575;SDS011;60613;48.658;2.328;2023-11-21T13:01:30;4.87;;;1.40;;
72575;SDS011;60613;48.658;2.328;2023-11-21T13:03:59;6.10;;;1.30;;
72575;SDS011;60613;48.658;2.328;2023-11-21T13:06:27;6.43;;;1.40;;
72575;SDS011;60613;48.658;2.328;2023-11-21T13:08:53;5.15;;;1.30;;
72575;SDS011;60613;48.658;2.328;2023-11-21T13:11:22;6.70;;;1.50;;
72575;SDS011;60613;48.658;2.328;2023-11-21T13:13:47;8.70;;;1.40;;
72575;SDS011;60613;48.658;2.328;2023-11-21T13:16:18;7.20;;;1.33;;
72575;SDS011;60613;48.658;2.328;2023-11-21T13:18:45;7.07;;;1.60;;
72575;SDS011;60613;48.658;2.328;2023-11-21T13:21:11;8.43;;;1.70;;
72575;SDS011;60613;48.658;2.328;2023-11-21T13:23:41;4.43;;;1.40;;
72575;SDS011;60613;48.658;2.328;2023-11-21T13:26:08;9.32;;;1.40;;
72575;SDS011;60613;48.658;2.328;2023-11-21T13:28:34;8.93;;;1.60;;
72575;SDS011;60613;48.658;2.328;2023-11-21T13:31:02;8.17;;;1.50;;
72575;SDS011;60613;48.658;2.328;2023-11-21T13:33:34;12.35;;;2.17;;
72575;SDS011;60613;48.658;2.328;2023-11-21T13:36:03;9.20;;;1.95;;
72575;SDS011;60613;48.658;2.328;2023-11-21T13:38:32;12.52;;;2.10;;
72575;SDS011;60613;48.658;2.328;2023-11-21T13:41:00;7.85;;;1.80;;
72575;SDS011;60613;48.658;2.328;2023-11-21T13:43:26;10.83;;;2.10;;
72575;SDS011;60613;48.658;2.328;2023-11-21T13:45:53;9.80;;;2.00;;
72575;SDS011;60613;48.658;2.328;2023-11-21T13:48:29;8.95;;;1.85;;
72575;SDS011;60613;48.658;2.328;2023-11-21T13:50:59;10.80;;;2.07;;
72575;SDS011;60613;48.658;2.328;2023-11-21T13:53:33;9.07;;;1.90;;
72575;SDS011;60613;48.658;2.328;2023-11-21T13:56:02;11.23;;;2.22;;
72575;SDS011;60613;48.658;2.328;2023-11-21T13:58:28;10.40;;;2.15;;
72575;SDS011;60613;48.658;2.328;2023-11-21T14:01:16;9.75;;;1.73;;
72575;SDS011;60613;48.658;2.328;2023-11-21T14:03:54;8.80;;;2.37;;
72575;SDS011;60613;48.658;2.328;2023-11-21T14:06:27;10.27;;;1.83;;
72575;SDS011;60613;48.658;2.328;2023-11-21T14:08:59;8.70;;;1.80;;
72575;SDS011;60613;48.658;2.328;2023-11-21T14:11:30;10.00;;;1.80;;
72575;SDS011;60613;48.658;2.328;2023-11-21T14:13:56;10.20;;;2.20;;
72575;SDS011;60613;48.658;2.328;2023-11-21T14:16:24;8.67;;;1.83;;
72575;SDS011;60613;48.658;2.328;2023-11-21T14:18:49;11.20;;;2.00;;
72575;SDS011;60613;48.658;2.328;2023-11-21T14:21:22;8.77;;;1.95;;
72575;SDS011;60613;48.658;2.328;2023-11-21T14:23:48;9.37;;;1.93;;
72575;SDS011;60613;48.658;2.328;2023-11-21T14:26:14;10.68;;;2.13;;
72575;SDS011;60613;48.658;2.328;2023-11-21T14:28:40;8.60;;;1.75;;
72575;SDS011;60613;48.658;2.328;2023-11-21T14:31:06;9.80;;;2.20;;
72575;SDS011;60613;48.658;2.328;2023-11-21T14:33:32;10.82;;;2.22;;
72575;SDS011;60613;48.658;2.328;2023-11-21T14:35:58;10.70;;;2.42;;
72575;SDS011;60613;48.658;2.328;2023-11-21T14:38:24;10.03;;;2.07;;
72575;SDS011;60613;48.658;2.328;2023-11-21T14:40:49;11.43;;;1.92;;
72575;SDS011;60613;48.658;2.328;2023-11-21T14:43:15;8.57;;;2.10;;
72575;SDS011;60613;48.658;2.328;2023-11-21T14:45:42;13.27;;;2.17;;
72575;SDS011;60613;48.658;2.328;2023-11-21T14:48:07;11.40;;;1.93;;
72575;SDS011;60613;48.658;2.328;2023-11-21T14:50:41;10.00;;;2.30;;
72575;SDS011;60613;48.658;2.328;2023-11-21T14:53:07;11.85;;;2.53;;
72575;SDS011;60613;48.658;2.328;2023-11-21T14:55:34;11.93;;;2.40;;
72575;SDS011;60613;48.658;2.328;2023-11-21T14:58:20;13.00;;;2.30;;
72575;SDS011;60613;48.658;2.328;2023-11-21T15:00:53;10.27;;;1.98;;
72575;SDS011;60613;48.658;2.328;2023-11-21T15:03:23;9.88;;;2.03;;
72575;SDS011;60613;48.658;2.328;2023-11-21T15:06:02;11.35;;;2.60;;
72575;SDS011;60613;48.658;2.328;2023-11-21T15:08:44;11.35;;;2.08;;
72575;SDS011;60613;48.658;2.328;2023-11-21T15:11:40;11.00;;;2.20;;
72575;SDS011;60613;48.658;2.328;2023-11-21T15:14:06;13.20;;;2.60;;
72575;SDS011;60613;48.658;2.328;2023-11-21T15:16:34;10.02;;;2.40;;
72575;SDS011;60613;48.658;2.328;2023-11-21T15:19:06;10.77;;;1.90;;
72575;SDS011;60613;48.658;2.328;2023-11-21T15:21:34;9.38;;;2.38;;
72575;SDS011;60613;48.658;2.328;2023-11-21T15:24:01;12.77;;;2.73;;
72575;SDS011;60613;48.658;2.328;2023-11-21T15:26:27;13.98;;;2.75;;
72575;SDS011;60613;48.658;2.328;2023-11-21T15:28:53;9.73;;;2.38;;
72575;SDS011;60613;48.658;2.328;2023-11-21T15:31:19;10.35;;;2.20;;
72575;SDS011;60613;48.658;2.328;2023-11-21T15:33:49;12.45;;;2.22;;
72575;SDS011;60613;48.658;2.328;2023-11-21T15:36:16;12.53;;;2.27;;
72575;SDS011;60613;48.658;2.328;2023-11-21T15:38:42;13.23;;;2.30;;
72575;SDS011;60613;48.658;2.328;2023-11-21T15:41:09;9.45;;;2.25;;
72575;SDS011;60613;48.658;2.328;2023-11-21T15:43:36;15.60;;;2.80;;
72575;SDS011;60613;48.658;2.328;2023-11-21T15:46:02;13.68;;;2.95;;
72575;SDS011;60613;48.658;2.328;2023-11-21T15:48:32;11.18;;;2.63;;
72575;SDS011;60613;48.658;2.328;2023-11-21T15:51:04;11.88;;;2.50;;
72575;SDS011;60613;48.658;2.328;2023-11-21T15:53:30;14.83;;;2.47;;
72575;SDS011;60613;48.658;2.328;2023-11-21T15:55:56;12.85;;;2.72;;
72575;SDS011;60613;48.658;2.328;2023-11-21T15:58:22;12.88;;;2.88;;
72575;SDS011;60613;48.658;2.328;2023-11-21T16:00:47;9.93;;;2.30;;
72575;SDS011;60613;48.658;2.328;2023-11-21T16:03:13;19.63;;;3.17;;
72575;SDS011;60613;48.658;2.328;2023-11-21T16:05:39;13.90;;;2.90;;
72575;SDS011;60613;48.658;2.328;2023-11-21T16:08:05;16.20;;;3.05;;
72575;SDS011;60613;48.658;2.328;2023-11-21T16:10:31;15.73;;;3.40;;
72575;SDS011;60613;48.658;2.328;2023-11-21T16:12:56;12.10;;;2.80;;
72575;SDS011;60613;48.658;2.328;2023-11-21T16:15:22;13.93;;;2.57;;
72575;SDS011;60613;48.658;2.328;2023-11-21T16:17:48;15.10;;;3.17;;
72575;SDS011;60613;48.658;2.328;2023-11-21T16:20:13;12.00;;;2.43;;
72575;SDS011;60613;48.658;2.328;2023-11-21T16:22:40;14.63;;;2.75;;
72575;SDS011;60613;48.658;2.328;2023-11-21T16:25:06;14.60;;;3.03;;
72575;SDS011;60613;48.658;2.328;2023-11-21T16:27:39;13.97;;;2.70;;
72575;SDS011;60613;48.658;2.328;2023-11-21T16:30:05;15.25;;;3.00;;
72575;SDS011;60613;48.658;2.328;2023-11-21T16:32:34;18.60;;;3.50;;
72575;SDS011;60613;48.658;2.328;2023-11-21T16:35:02;14.48;;;3.47;;
72575;SDS011;60613;48.658;2.328;2023-11-21T16:37:28;18.48;;;3.30;;
72575;SDS011;60613;48.658;2.328;2023-11-21T16:39:54;17.13;;;3.53;;
72575;SDS011;60613;48.658;2.328;2023-11-21T16:42:20;22.05;;;3.92;;
72575;SDS011;60613;48.658;2.328;2023-11-21T16:44:45;14.47;;;3.63;;
72575;SDS011;60613;48.658;2.328;2023-11-21T16:47:11;16.95;;;4.57;;
72575;SDS011;60613;48.658;2.328;2023-11-21T16:49:37;17.07;;;5.10;;
72575;SDS011;60613;48.658;2.328;2023-11-21T16:52:04;20.40;;;5.80;;
72575;SDS011;60613;48.658;2.328;2023-11-21T16:54:32;19.77;;;5.55;;
72575;SDS011;60613;48.658;2.328;2023-11-21T16:56:58;21.08;;;6.97;;
72575;SDS011;60613;48.658;2.328;2023-11-21T16:59:24;17.60;;;6.77;;
72575;SDS011;60613;48.658;2.328;2023-11-21T17:01:50;22.35;;;7.47;;
72575;SDS011;60613;48.658;2.328;2023-11-21T17:04:15;20.60;;;7.40;;
72575;SDS011;60613;48.658;2.328;2023-11-21T17:06:43;20.92;;;8.25;;
72575;SDS011;60613;48.658;2.328;2023-11-21T17:09:10;22.48;;;8.52;;
72575;SDS011;60613;48.658;2.328;2023-11-21T17:11:41;19.60;;;7.65;;
72575;SDS011;60613;48.658;2.328;2023-11-21T17:14:07;16.75;;;7.05;;
72575;SDS011;60613;48.658;2.328;2023-11-21T17:16:33;19.30;;;7.30;;
72575;SDS011;60613;48.658;2.328;2023-11-21T17:19:00;20.58;;;7.20;;
72575;SDS011;60613;48.658;2.328;2023-11-21T17:21:28;19.48;;;6.97;;
72575;SDS011;60613;48.658;2.328;2023-11-21T17:23:55;19.52;;;6.70;;
72575;SDS011;60613;48.658;2.328;2023-11-21T17:26:21;17.33;;;6.15;;
72575;SDS011;60613;48.658;2.328;2023-11-21T17:28:47;15.93;;;5.30;;
72575;SDS011;60613;48.658;2.328;2023-11-21T17:31:12;15.90;;;5.17;;
72575;SDS011;60613;48.658;2.328;2023-11-21T17:33:38;16.88;;;5.93;;
72575;SDS011;60613;48.658;2.328;2023-11-21T17:36:04;17.67;;;5.18;;
72575;SDS011;60613;48.658;2.328;2023-11-21T17:38:30;16.50;;;5.00;;
72575;SDS011;60613;48.658;2.328;2023-11-21T17:40:57;16.55;;;4.93;;
72575;SDS011;60613;48.658;2.328;2023-11-21T17:43:22;17.60;;;5.28;;
72575;SDS011;60613;48.658;2.328;2023-11-21T17:45:48;17.33;;;5.00;;
72575;SDS011;60613;48.658;2.328;2023-11-21T17:48:14;14.52;;;4.63;;
72575;SDS011;60613;48.658;2.328;2023-11-21T17:50:39;16.50;;;5.00;;
72575;SDS011;60613;48.658;2.328;2023-11-21T17:53:05;16.65;;;5.43;;
72575;SDS011;60613;48.658;2.328;2023-11-21T17:55:31;15.53;;;5.37;;
72575;SDS011;60613;48.658;2.328;2023-11-21T17:57:57;22.10;;;6.43;;
72575;SDS011;60613;48.658;2.328;2023-11-21T18:00:23;25.52;;;6.70;;
72575;SDS011;60613;48.658;2.328;2023-11-21T18:02:52;18.73;;;6.77;;
72575;SDS011;60613;48.658;2.328;2023-11-21T18:05:18;26.67;;;8.00;;
72575;SDS011;60613;48.658;2.328;2023-11-21T18:07:46;28.95;;;7.00;;
72575;SDS011;60613;48.658;2.328;2023-11-21T18:10:12;24.92;;;7.55;;
72575;SDS011;60613;48.658;2.328;2023-11-21T18:12:37;22.10;;;7.40;;
72575;SDS011;60613;48.658;2.328;2023-11-21T18:15:03;24.42;;;6.63;;
72575;SDS011;60613;48.658;2.328;2023-11-21T18:17:30;23.60;;;7.50;;
72575;SDS011;60613;48.658;2.328;2023-11-21T18:19:55;19.47;;;6.70;;
72575;SDS011;60613;48.658;2.328;2023-11-21T18:22:21;16.83;;;6.67;;
72575;SDS011;60613;48.658;2.328;2023-11-21T18:24:49;16.42;;;6.00;;
72575;SDS011;60613;48.658;2.328;2023-11-21T18:27:17;14.95;;;5.72;;
72575;SDS011;60613;48.658;2.328;2023-11-21T18:29:43;15.93;;;5.53;;
72575;SDS011;60613;48.658;2.328;2023-11-21T18:32:09;15.03;;;5.50;;
72575;SDS011;60613;48.658;2.328;2023-11-21T18:34:36;15.30;;;6.00;;
72575;SDS011;60613;48.658;2.328;2023-11-21T18:37:05;14.38;;;5.35;;
72575;SDS011;60613;48.658;2.328;2023-11-21T18:39:31;13.65;;;5.25;;
72575;SDS011;60613;48.658;2.328;2023-11-21T18:41:57;14.30;;;4.77;;
72575;SDS011;60613;48.658;2.328;2023-11-21T18:44:24;14.98;;;5.40;;
72575;SDS011;60613;48.658;2.328;2023-11-21T18:46:50;12.32;;;4.40;;
72575;SDS011;60613;48.658;2.328;2023-11-21T18:49:18;12.65;;;4.78;;
72575;SDS011;60613;48.658;2.328;2023-11-21T18:51:46;12.73;;;4.50;;
72575;SDS011;60613;48.658;2.328;2023-11-21T18:54:14;15.57;;;4.68;;
72575;SDS011;60613;48.658;2.328;2023-11-21T18:56:40;12.03;;;4.30;;
72575;SDS011;60613;48.658;2.328;2023-11-21T18:59:08;12.48;;;4.55;;
72575;SDS011;60613;48.658;2.328;2023-11-21T19:01:35;13.00;;;4.50;;
72575;SDS011;60613;48.658;2.328;2023-11-21T19:04:01;11.38;;;4.35;;
72575;SDS011;60613;48.658;2.328;2023-11-21T19:06:27;13.25;;;4.72;;
72575;SDS011;60613;48.658;2.328;2023-11-21T19:08:53;11.43;;;4.67;;
72575;SDS011;60613;48.658;2.328;2023-11-21T19:11:19;11.38;;;4.55;;
72575;SDS011;60613;48.658;2.328;2023-11-21T19:13:46;12.45;;;4.53;;
72575;SDS011;60613;48.658;2.328;2023-11-21T19:16:12;11.55;;;4.30;;
72575;SDS011;60613;48.658;2.328;2023-11-21T19:18:41;11.33;;;4.40;;
72575;SDS011;60613;48.658;2.328;2023-11-21T19:21:13;12.45;;;4.40;;
72575;SDS011;60613;48.658;2.328;2023-11-21T19:23:40;9.73;;;3.65;;
72575;SDS011;60613;48.658;2.328;2023-11-21T19:26:06;10.50;;;3.67;;
72575;SDS011;60613;48.658;2.328;2023-11-21T19:28:32;9.10;;;3.37;;
72575;SDS011;60613;48.658;2.328;2023-11-21T19:30:57;8.27;;;3.20;;
72575;SDS011;60613;48.658;2.328;2023-11-21T19:33:24;9.63;;;3.27;;
72575;SDS011;60613;48.658;2.328;2023-11-21T19:35:51;8.13;;;3.20;;
72575;SDS011;60613;48.658;2.328;2023-11-21T19:38:17;8.02;;;2.92;;
72575;SDS011;60613;48.658;2.328;2023-11-21T19:40:44;8.63;;;2.90;;
72575;SDS011;60613;48.658;2.328;2023-11-21T19:43:10;6.85;;;2.40;;
72575;SDS011;60613;48.658;2.328;2023-11-21T19:45:36;8.93;;;2.80;;
72575;SDS011;60613;48.658;2.328;2023-11-21T19:48:01;8.13;;;2.90;;
72575;SDS011;60613;48.658;2.328;2023-11-21T19:50:27;7.82;;;2.80;;
72575;SDS011;60613;48.658;2.328;2023-11-21T19:52:53;7.90;;;2.53;;
72575;SDS011;60613;48.658;2.328;2023-11-21T19:55:18;6.50;;;2.40;;
72575;SDS011;60613;48.658;2.328;2023-11-21T19:57:44;7.28;;;2.40;;
72575;SDS011;60613;48.658;2.328;2023-11-21T20:00:10;6.60;;;2.47;;
72575;SDS011;60613;48.658;2.328;2023-11-21T20:02:37;7.85;;;2.60;;
72575;SDS011;60613;48.658;2.328;2023-11-21T20:05:03;6.78;;;2.50;;
72575;SDS011;60613;48.658;2.328;2023-11-21T20:07:28;7.40;;;2.50;;
72575;SDS011;60613;48.658;2.328;2023-11-21T20:09:57;7.43;;;2.58;;
72575;SDS011;60613;48.658;2.328;2023-11-21T20:12:23;7.97;;;2.30;;
72575;SDS011;60613;48.658;2.328;2023-11-21T20:14:49;7.73;;;2.50;;
72575;SDS011;60613;48.658;2.328;2023-11-21T20:17:14;7.03;;;2.35;;
72575;SDS011;60613;48.658;2.328;2023-11-21T20:19:42;6.00;;;2.37;;
72575;SDS011;60613;48.658;2.328;2023-11-21T20:22:08;6.55;;;2.38;;
72575;SDS011;60613;48.658;2.328;2023-11-21T20:24:33;7.47;;;2.37;;
72575;SDS011;60613;48.658;2.328;2023-11-21T20:27:02;8.03;;;2.40;;
72575;SDS011;60613;48.658;2.328;2023-11-21T20:29:29;6.97;;;2.22;;
72575;SDS011;60613;48.658;2.328;2023-11-21T20:31:56;5.47;;;2.10;;
72575;SDS011;60613;48.658;2.328;2023-11-21T20:34:22;8.07;;;2.22;;
72575;SDS011;60613;48.658;2.328;2023-11-21T20:36:48;7.30;;;2.27;;
72575;SDS011;60613;48.658;2.328;2023-11-21T20:39:14;6.18;;;2.10;;
72575;SDS011;60613;48.658;2.328;2023-11-21T20:41:41;6.00;;;2.05;;
72575;SDS011;60613;48.658;2.328;2023-11-21T20:44:07;6.60;;;2.20;;
72575;SDS011;60613;48.658;2.328;2023-11-21T20:46:38;6.50;;;2.10;;
72575;SDS011;60613;48.658;2.328;2023-11-21T20:49:11;5.97;;;1.88;;
72575;SDS011;60613;48.658;2.328;2023-11-21T20:51:37;6.90;;;2.20;;
72575;SDS011;60613;48.658;2.328;2023-11-21T20:54:03;6.37;;;2.17;;
72575;SDS011;60613;48.658;2.328;2023-11-21T20:56:30;5.47;;;1.75;;
72575;SDS011;60613;48.658;2.328;2023-11-21T20:58:57;5.90;;;1.95;;
72575;SDS011;60613;48.658;2.328;2023-11-21T21:01:25;5.13;;;1.80;;
72575;SDS011;60613;48.658;2.328;2023-11-21T21:03:50;5.27;;;1.80;;
72575;SDS011;60613;48.658;2.328;2023-11-21T21:06:16;5.88;;;2.10;;
72575;SDS011;60613;48.658;2.328;2023-11-21T21:08:42;5.37;;;2.00;;
72575;SDS011;60613;48.658;2.328;2023-11-21T21:11:07;6.93;;;1.90;;
72575;SDS011;60613;48.658;2.328;2023-11-21T21:13:34;5.78;;;1.88;;
72575;SDS011;60613;48.658;2.328;2023-11-21T21:16:00;6.22;;;1.60;;
72575;SDS011;60613;48.658;2.328;2023-11-21T21:18:26;5.37;;;1.87;;
72575;SDS011;60613;48.658;2.328;2023-11-21T21:20:52;5.78;;;1.83;;
72575;SDS011;60613;48.658;2.328;2023-11-21T21:23:19;5.93;;;1.70;;
72575;SDS011;60613;48.658;2.328;2023-11-21T21:25:45;4.97;;;1.70;;
72575;SDS011;60613;48.658;2.328;2023-11-21T21:28:11;5.13;;;1.80;;
72575;SDS011;60613;48.658;2.328;2023-11-21T21:30:38;4.75;;;1.60;;
72575;SDS011;60613;48.658;2.328;2023-11-21T21:33:06;5.95;;;1.60;;
72575;SDS011;60613;48.658;2.328;2023-11-21T21:35:35;5.97;;;1.80;;
72575;SDS011;60613;48.658;2.328;2023-11-21T21:38:01;5.00;;;1.60;;
72575;SDS011;60613;48.658;2.328;2023-11-21T21:40:27;4.85;;;1.52;;
72575;SDS011;60613;48.658;2.328;2023-11-21T21:42:54;4.57;;;1.60;;
72575;SDS011;60613;48.658;2.328;2023-11-21T21:45:21;5.43;;;1.75;;
72575;SDS011;60613;48.658;2.328;2023-11-21T21:47:47;5.27;;;1.60;;
72575;SDS011;60613;48.658;2.328;2023-11-21T21:50:14;6.93;;;1.40;;
72575;SDS011;60613;48.658;2.328;2023-11-21T21:52:40;4.57;;;1.50;;
72575;SDS011;60613;48.658;2.328;2023-11-21T21:55:07;5.63;;;1.65;;
72575;SDS011;60613;48.658;2.328;2023-11-21T21:57:35;4.85;;;1.50;;
72575;SDS011;60613;48.658;2.328;2023-11-21T22:00:01;6.43;;;2.10;;
72575;SDS011;60613;48.658;2.328;2023-11-21T22:02:27;6.55;;;1.90;;
72575;SDS011;60613;48.658;2.328;2023-11-21T22:04:53;7.30;;;1.73;;